createdAt,value
2022-11-14T00:01:51.857Z,19.00
2022-11-14T00:04:18.855Z,17.33
2022-11-14T00:06:45.947Z,17.33
2022-11-14T00:09:13.118Z,18.63
2022-11-14T00:11:40.117Z,16.50
2022-11-14T00:14:07.351Z,16.80
2022-11-14T00:16:34.341Z,17.87
2022-11-14T00:19:01.314Z,18.27
2022-11-14T00:21:28.376Z,16.30
2022-11-14T00:23:55.281Z,21.73
2022-11-14T00:26:22.295Z,19.20
2022-11-14T00:28:49.322Z,20.73
2022-11-14T00:31:16.395Z,16.77
2022-11-14T00:33:43.457Z,19.57
2022-11-14T00:36:10.388Z,19.93
2022-11-14T00:38:37.405Z,18.30
2022-11-14T00:41:04.378Z,20.87
2022-11-14T00:43:32.329Z,19.60
2022-11-14T00:45:59.333Z,17.17
2022-11-14T00:48:26.576Z,21.40
2022-11-14T00:50:53.777Z,18.83
2022-11-14T00:53:20.760Z,19.67
2022-11-14T00:55:47.702Z,20.03
2022-11-14T00:58:14.680Z,24.63
2022-11-14T01:00:41.839Z,19.13
2022-11-14T01:03:09.138Z,24.73
2022-11-14T01:05:42.393Z,25.80
2022-11-14T01:08:09.639Z,23.40
2022-11-14T01:10:43.789Z,19.80
2022-11-14T01:13:11.668Z,28.10
2022-11-14T01:15:43.326Z,21.03
2022-11-14T01:18:17.383Z,24.40
2022-11-14T01:20:46.879Z,22.67
2022-11-14T01:23:16.079Z,29.23
2022-11-14T01:25:43.936Z,24.00
2022-11-14T01:28:17.416Z,23.23
2022-11-14T01:30:44.942Z,23.37
2022-11-14T01:33:12.007Z,22.33
2022-11-14T01:35:39.267Z,21.90
2022-11-14T01:38:07.061Z,21.60
2022-11-14T01:40:34.422Z,23.03
2022-11-14T01:43:40.740Z,23.70
2022-11-14T01:46:16.487Z,27.73
2022-11-14T01:48:50.356Z,26.23
2022-11-14T01:51:32.107Z,24.70
2022-11-14T01:54:02.635Z,22.07
2022-11-14T01:56:48.028Z,24.23
2022-11-14T01:59:20.803Z,20.50
2022-11-14T02:01:53.007Z,25.70
2022-11-14T02:04:27.646Z,19.27
2022-11-14T02:07:00.194Z,26.30
2022-11-14T02:09:30.961Z,22.67
2022-11-14T02:12:00.263Z,24.43
2022-11-14T02:14:28.483Z,24.53
2022-11-14T02:17:22.250Z,25.43
2022-11-14T02:19:48.895Z,25.07
2022-11-14T02:22:16.113Z,30.40
2022-11-14T02:24:43.922Z,30.30
2022-11-14T02:27:12.172Z,30.50
2022-11-14T02:29:39.015Z,28.33
2022-11-14T02:32:10.482Z,25.97
2022-11-14T02:34:38.571Z,26.13
2022-11-14T02:37:05.822Z,30.87
2022-11-14T02:39:32.829Z,27.90
2022-11-14T02:41:59.897Z,30.30
2022-11-14T02:44:26.930Z,25.17
2022-11-14T02:46:53.815Z,25.07
2022-11-14T02:49:20.841Z,28.50
2022-11-14T02:51:47.835Z,24.27
2022-11-14T02:54:14.708Z,25.93
2022-11-14T02:56:41.871Z,24.73
2022-11-14T02:59:08.760Z,23.50
2022-11-14T03:01:35.871Z,28.97
2022-11-14T03:04:03.823Z,28.93
2022-11-14T03:06:31.004Z,27.60
2022-11-14T03:08:58.303Z,26.07
2022-11-14T03:11:25.361Z,26.90
2022-11-14T03:13:52.416Z,23.53
2022-11-14T03:16:19.480Z,26.47
2022-11-14T03:18:46.388Z,29.70
2022-11-14T03:21:16.009Z,24.80
2022-11-14T03:23:46.684Z,25.90
2022-11-14T03:26:14.805Z,32.30
2022-11-14T03:28:42.343Z,27.50
2022-11-14T03:31:11.606Z,25.50
2022-11-14T03:33:39.331Z,27.43
2022-11-14T03:36:10.078Z,24.87
2022-11-14T03:38:41.400Z,30.43
2022-11-14T03:41:11.247Z,25.87
2022-11-14T03:43:40.431Z,28.40
2022-11-14T03:46:07.353Z,24.37
2022-11-14T03:48:34.307Z,33.80
2022-11-14T03:51:04.707Z,31.70
2022-11-14T03:53:31.794Z,33.97
2022-11-14T03:56:01.601Z,29.20
2022-11-14T03:58:28.881Z,29.10
2022-11-14T04:00:56.756Z,28.73
2022-11-14T04:03:25.445Z,31.90
2022-11-14T04:05:52.805Z,35.20
2022-11-14T04:08:19.758Z,34.40
2022-11-14T04:10:50.212Z,31.30
2022-11-14T04:13:20.482Z,31.97
2022-11-14T04:15:47.503Z,34.10
2022-11-14T04:18:14.495Z,32.97
2022-11-14T04:20:41.554Z,36.90
2022-11-14T04:23:08.614Z,38.17
2022-11-14T04:25:35.531Z,33.70
2022-11-14T04:28:02.534Z,32.13
2022-11-14T04:30:34.411Z,35.17
2022-11-14T04:33:01.840Z,31.93
2022-11-14T04:35:28.721Z,32.27
2022-11-14T04:37:55.730Z,31.17
2022-11-14T04:40:22.764Z,29.30
2022-11-14T04:42:49.714Z,32.30
2022-11-14T04:45:16.754Z,33.20
2022-11-14T04:47:44.122Z,29.30
2022-11-14T04:50:11.199Z,29.50
2022-11-14T04:52:38.185Z,29.03
2022-11-14T04:55:05.493Z,29.33
2022-11-14T04:57:32.478Z,32.43
2022-11-14T04:59:59.435Z,30.77
2022-11-14T05:02:26.385Z,28.37
2022-11-14T05:04:53.388Z,29.60
2022-11-14T05:07:20.442Z,29.73
2022-11-14T05:09:47.395Z,29.93
2022-11-14T05:12:14.400Z,29.20
2022-11-14T05:14:41.413Z,37.10
2022-11-14T05:17:08.401Z,33.50
2022-11-14T05:19:35.333Z,34.00
2022-11-14T05:22:02.310Z,33.97
2022-11-14T05:24:29.334Z,33.23
2022-11-14T05:26:57.571Z,36.93
2022-11-14T05:29:24.713Z,39.37
2022-11-14T05:31:51.645Z,37.13
2022-11-14T05:34:18.691Z,40.10
2022-11-14T05:36:45.687Z,35.63
2022-11-14T05:39:12.583Z,36.67
2022-11-14T05:41:39.520Z,36.30
2022-11-14T05:44:06.695Z,36.73
2022-11-14T05:46:33.717Z,41.17
2022-11-14T05:49:00.875Z,41.50
2022-11-14T05:51:27.941Z,36.87
2022-11-14T05:53:55.789Z,37.40
2022-11-14T05:56:22.631Z,46.47
2022-11-14T05:58:49.654Z,42.40
2022-11-14T06:01:20.623Z,40.33
2022-11-14T06:03:48.946Z,42.17
2022-11-14T06:06:19.863Z,45.83
2022-11-14T06:08:47.238Z,50.30
2022-11-14T06:11:19.563Z,48.23
2022-11-14T06:13:49.437Z,48.77
2022-11-14T06:16:18.472Z,48.90
2022-11-14T06:18:45.994Z,49.30
2022-11-14T06:21:18.530Z,50.13
2022-11-14T06:23:46.319Z,48.73
2022-11-14T06:26:30.443Z,53.30
2022-11-14T06:28:58.635Z,49.83
2022-11-14T06:31:27.431Z,46.50
2022-11-14T06:34:04.432Z,51.17
2022-11-14T06:36:31.458Z,49.47
2022-11-14T06:39:03.859Z,43.67
2022-11-14T06:41:30.996Z,53.47
2022-11-14T06:43:57.942Z,51.83
2022-11-14T06:46:24.989Z,48.67
2022-11-14T06:48:55.098Z,48.10
2022-11-14T06:51:22.204Z,48.13
2022-11-14T06:53:49.253Z,53.30
2022-11-14T06:56:18.249Z,45.77
2022-11-14T06:58:47.538Z,49.27
2022-11-14T07:01:28.500Z,52.47
2022-11-14T07:03:58.056Z,46.97
2022-11-14T07:06:27.224Z,44.33
2022-11-14T07:08:55.034Z,49.47
2022-11-14T07:11:29.637Z,46.33
2022-11-14T07:13:58.612Z,44.97
2022-11-14T07:16:29.642Z,52.17
2022-11-14T07:18:57.813Z,44.57
2022-11-14T07:21:26.098Z,49.50
2022-11-14T07:23:53.212Z,43.63
2022-11-14T07:26:20.193Z,40.40
2022-11-14T07:28:52.317Z,32.87
2022-11-14T07:31:21.081Z,35.30
2022-11-14T07:33:48.434Z,31.40
2022-11-14T07:36:16.440Z,31.27
2022-11-14T07:38:43.779Z,31.60
2022-11-14T07:41:13.645Z,26.73
2022-11-14T07:43:41.172Z,22.33
2022-11-14T07:46:12.113Z,27.03
2022-11-14T07:48:39.333Z,29.23
2022-11-14T07:51:09.575Z,37.90
2022-11-14T07:53:36.699Z,32.20
2022-11-14T07:56:06.334Z,32.93
2022-11-14T07:58:36.309Z,34.17
2022-11-14T08:01:04.548Z,25.73
2022-11-14T08:03:32.506Z,31.37
2022-11-14T08:06:26.057Z,24.33
2022-11-14T08:08:53.004Z,24.03
2022-11-14T08:11:43.661Z,21.87
2022-11-14T08:14:10.765Z,23.87
2022-11-14T08:16:37.757Z,22.57
2022-11-14T08:19:04.756Z,24.57
2022-11-14T08:21:31.783Z,27.40
2022-11-14T08:23:58.746Z,21.73
2022-11-14T08:26:28.983Z,24.07
2022-11-14T08:28:59.995Z,22.77
2022-11-14T08:31:27.401Z,20.50
2022-11-14T08:33:54.368Z,22.20
2022-11-14T08:36:22.901Z,23.73
2022-11-14T08:38:51.648Z,19.20
2022-11-14T08:41:18.980Z,24.40
2022-11-14T08:43:46.149Z,23.63
2022-11-14T08:46:13.088Z,19.93
2022-11-14T08:48:40.103Z,19.80
2022-11-14T08:51:07.604Z,27.77
2022-11-14T08:53:35.077Z,22.63
2022-11-14T08:56:03.087Z,19.60
2022-11-14T08:58:32.577Z,18.67
2022-11-14T09:01:04.921Z,20.23
2022-11-14T09:03:32.612Z,19.67
2022-11-14T09:06:00.499Z,20.00
2022-11-14T09:08:28.935Z,20.80
2022-11-14T09:11:04.567Z,21.07
2022-11-14T09:13:33.928Z,20.67
2022-11-14T09:16:01.175Z,18.60
2022-11-14T09:18:28.424Z,17.43
2022-11-14T09:21:07.459Z,17.00
2022-11-14T09:23:34.922Z,18.40
2022-11-14T09:26:06.554Z,15.83
2022-11-14T09:28:33.568Z,16.57
2022-11-14T09:31:09.830Z,26.37
2022-11-14T09:33:37.099Z,19.10
2022-11-14T09:36:10.701Z,18.73
2022-11-14T09:38:39.476Z,16.87
2022-11-14T09:41:27.095Z,18.70
2022-11-14T09:44:40.929Z,16.87
2022-11-14T09:47:20.467Z,21.50
2022-11-14T09:49:51.608Z,19.20
2022-11-14T09:52:36.372Z,16.33
2022-11-14T09:55:14.925Z,20.63
2022-11-14T09:57:44.288Z,16.43
2022-11-14T10:00:21.593Z,17.97
2022-11-14T10:03:13.988Z,21.53
2022-11-14T10:06:22.797Z,17.13
2022-11-14T10:09:44.010Z,16.20
2022-11-14T10:12:19.803Z,18.23
2022-11-14T10:14:56.895Z,15.73
2022-11-14T10:18:04.980Z,19.97
2022-11-14T10:21:13.636Z,13.23
2022-11-14T10:24:39.104Z,18.40
2022-11-14T10:27:11.489Z,15.17
2022-11-14T10:30:12.797Z,18.20
2022-11-14T10:33:32.919Z,15.40
2022-11-14T10:36:25.523Z,18.00
2022-11-14T10:39:05.237Z,15.00
2022-11-14T10:41:56.281Z,18.60
2022-11-14T10:44:27.085Z,17.20
2022-11-14T10:47:01.461Z,15.77
2022-11-14T10:49:33.231Z,16.03
2022-11-14T10:52:04.889Z,17.80
2022-11-14T10:55:01.569Z,18.80
2022-11-14T10:57:29.073Z,14.67
2022-11-14T10:59:56.138Z,14.77
2022-11-14T11:02:23.209Z,15.20
2022-11-14T11:04:50.233Z,14.73
2022-11-14T11:07:42.260Z,16.37
2022-11-14T11:10:40.601Z,14.97
2022-11-14T11:13:13.643Z,16.07
2022-11-14T11:15:42.154Z,14.90
2022-11-14T11:18:30.925Z,15.57
2022-11-14T11:21:12.704Z,19.70
2022-11-14T11:24:09.657Z,15.90
2022-11-14T11:26:36.719Z,15.87
2022-11-14T11:29:18.496Z,17.73
2022-11-14T11:32:07.789Z,17.10
2022-11-14T11:34:35.210Z,18.30
2022-11-14T11:37:18.864Z,19.03
2022-11-14T11:40:02.304Z,15.67
2022-11-14T11:43:37.766Z,14.97
2022-11-14T11:46:20.687Z,16.33
2022-11-14T11:48:52.051Z,15.20
2022-11-14T11:51:23.360Z,20.23
2022-11-14T11:54:19.903Z,19.90
2022-11-14T11:56:52.506Z,16.27
2022-11-14T11:59:53.436Z,16.20
2022-11-14T12:02:27.667Z,16.63
2022-11-14T12:04:58.161Z,16.73
2022-11-14T12:07:36.228Z,16.20
2022-11-14T12:10:13.909Z,16.73
2022-11-14T12:13:26.626Z,15.37
2022-11-14T12:16:23.727Z,14.17
2022-11-14T12:19:35.668Z,21.13
2022-11-14T12:22:31.172Z,14.53
2022-11-14T12:25:47.336Z,16.97
2022-11-14T12:28:27.714Z,18.03
2022-11-14T12:31:00.455Z,14.93
2022-11-14T12:33:35.662Z,15.67
2022-11-14T12:36:10.046Z,15.20
2022-11-14T12:38:48.419Z,13.13
2022-11-14T12:41:44.630Z,14.37
2022-11-14T12:44:31.863Z,16.63
2022-11-14T12:47:26.396Z,12.33
2022-11-14T12:50:02.186Z,11.93
2022-11-14T12:53:01.768Z,16.20
2022-11-14T12:55:51.682Z,12.40
2022-11-14T12:58:51.410Z,16.17
2022-11-14T13:01:37.938Z,12.30
2022-11-14T13:04:45.800Z,12.83
2022-11-14T13:07:51.642Z,13.93
2022-11-14T13:10:31.885Z,11.83
2022-11-14T13:13:37.425Z,13.23
2022-11-14T13:16:23.540Z,10.30
2022-11-14T13:19:40.524Z,15.63
2022-11-14T13:22:18.902Z,12.17
2022-11-14T13:25:22.367Z,15.87
2022-11-14T13:28:07.226Z,12.27
2022-11-14T13:31:26.497Z,16.43
2022-11-14T13:34:01.655Z,16.07
2022-11-14T13:36:48.814Z,13.40
2022-11-14T13:39:54.291Z,14.50
2022-11-14T13:42:24.075Z,15.53
2022-11-14T13:45:42.112Z,13.63
2022-11-14T13:48:36.621Z,9.80
2022-11-14T13:51:28.907Z,10.13
2022-11-14T13:53:57.322Z,12.87
2022-11-14T13:56:37.785Z,11.33
2022-11-14T13:59:33.770Z,14.07
2022-11-14T14:02:42.697Z,10.00
2022-11-14T14:05:46.890Z,14.33
2022-11-14T14:08:35.592Z,18.00
2022-11-14T14:11:48.760Z,12.77
2022-11-14T14:15:04.599Z,16.37
2022-11-14T14:17:48.599Z,17.43
2022-11-14T14:20:40.851Z,12.97
2022-11-14T14:23:35.777Z,18.83
2022-11-14T14:26:36.053Z,15.70
2022-11-14T14:29:45.312Z,12.43
2022-11-14T14:32:17.325Z,16.97
2022-11-14T14:34:44.926Z,12.10
2022-11-14T14:37:26.316Z,16.40
2022-11-14T14:40:04.572Z,14.40
2022-11-14T14:42:40.143Z,12.90
2022-11-14T14:45:20.769Z,13.50
2022-11-14T14:47:50.619Z,12.23
2022-11-14T14:50:26.863Z,17.83
2022-11-14T14:52:59.763Z,13.03
2022-11-14T14:55:29.245Z,16.50
2022-11-14T14:57:56.391Z,28.33
2022-11-14T15:00:26.868Z,17.67
2022-11-14T15:02:55.980Z,15.30
2022-11-14T15:05:28.709Z,13.63
2022-11-14T15:08:04.003Z,10.50
2022-11-14T15:10:32.438Z,9.77
2022-11-14T15:12:59.634Z,9.67
2022-11-14T15:15:27.895Z,11.63
2022-11-14T15:17:58.771Z,12.10
2022-11-14T15:20:28.950Z,9.00
2022-11-14T15:23:19.441Z,9.07
2022-11-14T15:25:47.262Z,12.27
2022-11-14T15:28:17.581Z,9.73
2022-11-14T15:31:00.121Z,12.07
2022-11-14T15:33:35.222Z,11.17
2022-11-14T15:36:11.805Z,9.47
2022-11-14T15:38:46.413Z,8.90
2022-11-14T15:41:25.042Z,11.63
2022-11-14T15:43:55.213Z,13.70
2022-11-14T15:46:49.161Z,9.97
2022-11-14T15:49:27.300Z,15.53
2022-11-14T15:52:05.932Z,9.43
2022-11-14T15:54:37.964Z,14.50
2022-11-14T15:57:16.748Z,10.60
2022-11-14T15:59:43.935Z,10.00
2022-11-14T16:02:17.511Z,14.83
2022-11-14T16:04:47.854Z,10.10
2022-11-14T16:07:16.578Z,13.20
2022-11-14T16:09:43.653Z,12.37
2022-11-14T16:12:10.691Z,10.93
2022-11-14T16:14:38.149Z,15.30
2022-11-14T16:17:05.760Z,14.30
2022-11-14T16:19:32.728Z,9.87
2022-11-14T16:22:02.905Z,9.50
2022-11-14T16:24:34.336Z,12.50
2022-11-14T16:27:02.270Z,16.63
2022-11-14T16:29:29.318Z,17.37
2022-11-14T16:31:56.580Z,13.90
2022-11-14T16:34:25.650Z,16.37
2022-11-14T16:37:01.512Z,21.00
2022-11-14T16:39:28.798Z,15.70
2022-11-14T16:42:05.375Z,14.23
2022-11-14T16:44:38.889Z,16.63
2022-11-14T16:47:08.065Z,13.00
2022-11-14T16:49:35.079Z,11.77
2022-11-14T16:52:07.225Z,12.90
2022-11-14T16:54:36.871Z,9.87
2022-11-14T16:57:03.968Z,11.53
2022-11-14T16:59:31.173Z,13.00
2022-11-14T17:01:58.396Z,12.67
2022-11-14T17:04:25.498Z,15.17
2022-11-14T17:06:52.534Z,21.57
2022-11-14T17:09:19.570Z,12.87
2022-11-14T17:11:49.799Z,17.90
2022-11-14T17:14:16.741Z,10.33
2022-11-14T17:16:43.708Z,11.03
2022-11-14T17:19:10.718Z,19.33
2022-11-14T17:21:37.802Z,13.17
2022-11-14T17:24:05.389Z,17.57
2022-11-14T17:26:32.513Z,14.57
2022-11-14T17:28:59.546Z,21.47
2022-11-14T17:31:26.597Z,17.73
2022-11-14T17:33:56.719Z,18.00
2022-11-14T17:36:28.763Z,13.60
2022-11-14T17:38:59.012Z,14.90
2022-11-14T17:41:26.099Z,13.77
2022-11-14T17:43:56.688Z,12.23
2022-11-14T17:46:23.610Z,20.63
2022-11-14T17:48:50.627Z,17.33
2022-11-14T17:51:17.759Z,13.93
2022-11-14T17:53:44.756Z,14.60
2022-11-14T17:56:16.961Z,14.57
2022-11-14T17:58:44.903Z,18.50
2022-11-14T18:01:18.468Z,11.20
2022-11-14T18:03:45.574Z,11.00
2022-11-14T18:06:15.609Z,11.80
2022-11-14T18:08:42.651Z,11.60
2022-11-14T18:11:11.825Z,12.03
2022-11-14T18:13:39.894Z,15.37
2022-11-14T18:16:17.019Z,14.50
2022-11-14T18:18:44.047Z,13.07
2022-11-14T18:21:17.555Z,16.30
2022-11-14T18:23:44.578Z,21.10
2022-11-14T18:26:14.180Z,21.20
2022-11-14T18:28:41.555Z,15.83
2022-11-14T18:31:11.061Z,15.10
2022-11-14T18:33:39.294Z,15.93
2022-11-14T18:36:10.362Z,18.17
2022-11-14T18:38:37.354Z,17.83
2022-11-14T18:41:08.622Z,13.20
2022-11-14T18:43:35.783Z,11.90
2022-11-14T18:46:15.295Z,12.40
2022-11-14T18:48:45.500Z,15.60
2022-11-14T18:51:27.495Z,12.97
2022-11-14T18:53:59.497Z,11.90
2022-11-14T18:56:27.122Z,14.40
2022-11-14T18:58:57.223Z,12.50
2022-11-14T19:01:29.957Z,14.00
2022-11-14T19:03:59.687Z,13.07
2022-11-14T19:06:26.897Z,12.97
2022-11-14T19:08:57.886Z,13.80
2022-11-14T19:11:43.358Z,12.77
2022-11-14T19:14:13.586Z,14.83
2022-11-14T19:16:40.834Z,13.90
2022-11-14T19:19:08.841Z,12.87
2022-11-14T19:21:36.256Z,11.50
2022-11-14T19:24:03.482Z,13.80
2022-11-14T19:26:31.131Z,12.17
2022-11-14T19:29:06.329Z,11.50
2022-11-14T19:31:34.188Z,14.90
2022-11-14T19:34:03.911Z,16.63
2022-11-14T19:36:58.432Z,13.93
2022-11-14T19:39:18.274Z,12.43
2022-11-14T19:41:46.508Z,13.43
2022-11-14T19:44:13.588Z,13.27
2022-11-14T19:46:45.885Z,12.90
2022-11-14T19:49:14.425Z,13.83
2022-11-14T19:51:41.358Z,22.73
2022-11-14T19:54:11.322Z,13.60
2022-11-14T19:56:38.399Z,15.73
2022-11-14T19:59:10.988Z,15.17
2022-11-14T20:01:42.241Z,13.67
2022-11-14T20:04:13.324Z,16.00
2022-11-14T20:06:41.699Z,15.73
2022-11-14T20:09:10.576Z,14.30
2022-11-14T20:11:37.895Z,14.63
2022-11-14T20:14:05.936Z,18.20
2022-11-14T20:16:37.643Z,14.83
2022-11-14T20:19:05.108Z,12.87
2022-11-14T20:21:34.375Z,15.00
2022-11-14T20:24:02.124Z,13.50
2022-11-14T20:26:29.451Z,16.27
2022-11-14T20:28:56.581Z,12.70
2022-11-14T20:31:26.694Z,14.27
2022-11-14T20:33:54.763Z,14.93
2022-11-14T20:36:24.783Z,18.20
2022-11-14T20:38:52.802Z,13.17
2022-11-14T20:41:20.929Z,13.47
2022-11-14T20:43:48.382Z,12.77
2022-11-14T20:46:17.445Z,15.33
2022-11-14T20:48:46.034Z,15.17
2022-11-14T20:51:19.093Z,13.17
2022-11-14T20:53:46.770Z,14.10
2022-11-14T20:56:15.062Z,15.23
2022-11-14T20:58:46.542Z,11.83
2022-11-14T21:01:14.768Z,11.77
2022-11-14T21:03:41.909Z,18.73
2022-11-14T21:06:13.570Z,14.07
2022-11-14T21:08:41.425Z,13.00
2022-11-14T21:11:11.970Z,11.37
2022-11-14T21:14:01.796Z,15.23
2022-11-14T21:16:34.877Z,12.27
2022-11-14T21:19:02.842Z,16.23
2022-11-14T21:21:31.489Z,14.30
2022-11-14T21:23:58.442Z,16.00
2022-11-14T21:26:28.271Z,18.83
2022-11-14T21:28:58.353Z,13.43
2022-11-14T21:31:39.391Z,17.07
2022-11-14T21:34:14.521Z,13.20
2022-11-14T21:36:46.387Z,12.93
2022-11-14T21:39:16.194Z,12.40
2022-11-14T21:41:44.790Z,17.00
2022-11-14T21:44:14.813Z,14.07
2022-11-14T21:46:42.372Z,15.43
2022-11-14T21:49:10.122Z,13.73
2022-11-14T21:51:37.331Z,12.73
2022-11-14T21:54:06.588Z,15.27
2022-11-14T21:56:35.989Z,15.77
2022-11-14T21:59:15.278Z,20.83
2022-11-14T22:02:07.124Z,13.87
2022-11-14T22:04:35.115Z,11.73
2022-11-14T22:07:03.737Z,15.13
2022-11-14T22:09:30.957Z,17.33
2022-11-14T22:11:58.707Z,14.20
2022-11-14T22:14:25.766Z,15.13
2022-11-14T22:16:52.859Z,12.53
2022-11-14T22:19:19.972Z,12.93
2022-11-14T22:21:46.992Z,13.90
2022-11-14T22:24:13.978Z,12.80
2022-11-14T22:26:41.538Z,11.60
2022-11-14T22:29:09.082Z,13.40
2022-11-14T22:31:38.010Z,12.07
2022-11-14T22:34:05.529Z,12.33
2022-11-14T22:36:33.558Z,10.90
2022-11-14T22:39:00.652Z,14.80
2022-11-14T22:41:32.615Z,11.43
2022-11-14T22:44:00.660Z,15.17
2022-11-14T22:46:28.297Z,11.93
2022-11-14T22:48:55.780Z,11.33
2022-11-14T22:51:24.665Z,12.10
2022-11-14T22:53:54.099Z,11.57
2022-11-14T22:56:23.506Z,14.00
2022-11-14T22:58:50.638Z,10.27
2022-11-14T23:01:32.981Z,11.10
2022-11-14T23:04:02.437Z,10.40
2022-11-14T23:06:31.625Z,11.40
2022-11-14T23:08:59.798Z,12.30
2022-11-14T23:11:30.189Z,16.43
2022-11-14T23:13:58.919Z,10.97
2022-11-14T23:16:32.317Z,13.23
2022-11-14T23:19:01.957Z,10.57
2022-11-14T23:21:35.296Z,10.23
2022-11-14T23:24:05.693Z,10.93
2022-11-14T23:26:33.218Z,11.33
2022-11-14T23:29:00.493Z,11.60
2022-11-14T23:31:27.879Z,11.07
2022-11-14T23:33:56.485Z,12.10
2022-11-14T23:36:24.653Z,12.70
2022-11-14T23:38:54.957Z,15.27
2022-11-14T23:41:25.527Z,12.23
2022-11-14T23:43:52.629Z,11.30
2022-11-14T23:46:19.880Z,11.50
2022-11-14T23:48:46.859Z,11.80
2022-11-14T23:51:13.856Z,10.53
2022-11-14T23:53:41.601Z,10.63
2022-11-14T23:56:12.043Z,13.70
2022-11-14T23:58:39.172Z,13.00
